Accueil
METAR-TAF:

METAR-TAF

Aéroports :

Meiringen, Suisse

latitude: 46-44-25N, longitude: 8-06-36E, altitude: 577 m

Observation

Le bulletin a été fait il y a 40 minutes, à 23:50 UTC
Vent 13 kt de ouest/nord-ouest, variant entre ouest/sud-ouest et nord
Température 3°C
Humidité 60%
Pression 1013 hPa
Visibilité 10 km ou plus
Quelques nuages à une hauteur de 1500 ft
Nuages épars à une hauteur de 2000 ft
Ciel couvert à une hauteur de 2600 ft
faibles averses de pluie, brume

METAR: LSMM 272350Z AUTO 30013KT 240V010 9999NDV -SHRA BR FEW015 SCT020 OVC026 03/M04 Q1013 RMK

Heure: 01:30 (00:30 UTC)


TAF: absent

Observations et prévisions météorologiques de plus de 4000 aéroports (messages METAR et TAF).

Les stations disponibles sont représentées par des disques jaunes et rouges sur la carte.

Passer la souris dessus pour voir le nom de la station.

Cliquer dessus pour voir les observations et prévisions météorologiques.

Pour changer de carte: cliquez sur les boutons verts avec une croix noire pour zoomer, sur le bouton vert avec un tiret pour effectuer un zoom arrière, ou sur les flèches vertes pour les cartes adjacentes.


METAR-TAF: